Holy City, California
Current Conditions -  °F | °C
As of 9:53 PM on Friday 19 Dec 2014 (Local Time) from KSJC Reporting Station
Broken Clouds Broken Clouds  
Wind Chill: 55°   Ceiling: 3900
Heat Index: 55°   Visibility: 10mi
Dew Point: 53°   Wind: 3mph
Humidity: 93%   Direction: 130°SE
Pressure: 30.15"   Gusts: NA
Location:  37.16°N, 121.98°W
Report Text: KSJC 200553Z 13003KT 10SM SCT025 BKN039 BKN050 13/12 A3015 RMK AO2 RAB25E51 SLP210 P0000 60005 T01280117 10133 20128 53004
Loading
Personal Weather Stations






























Interactive Weather Map New forecast layout! Learn more

10-Day Weather Forecast

Advertisements
Track Severe Weather on mobile